Time;durP1;ratioP1;P1;durP2;ratioP2;P2;SDS_P1;SDS_P2;PMS_P1;PMS_P2;Temp;Humidity;BMP_temperature;BMP_pressure;BME280_temperature;BME280_humidity;BME280_pressure;Samples;Min_cycle;Max_cycle;Signal;HPM_P1;HPM_P2
2023/08/18 00:00:43;;;;;;;50.03;25.80;;;;;;;19.84;100.00;101672.50;5271841;28;20089;-72
2023/08/18 00:03:14;;;;;;;53.63;29.45;;;;;;;19.83;100.00;101668.09;5271388;28;20027;-71
2023/08/18 00:05:44;;;;;;;52.67;27.48;;;;;;;19.81;100.00;101666.63;5270375;28;20260;-71
2023/08/18 00:08:15;;;;;;;60.42;29.45;;;;;;;19.77;100.00;101666.19;5273331;28;20298;-71
2023/08/18 00:10:46;;;;;;;55.58;28.52;;;;;;;19.78;100.00;101669.75;5277414;28;20077;-71
2023/08/18 00:13:16;;;;;;;50.42;28.70;;;;;;;19.76;100.00;101664.50;5285561;28;20019;-71
2023/08/18 00:15:47;;;;;;;47.55;26.73;;;;;;;19.75;100.00;101665.56;5280640;28;20090;-71
2023/08/18 00:18:18;;;;;;;51.28;28.67;;;;;;;19.75;100.00;101656.56;5264388;28;20028;-72
2023/08/18 00:20:50;;;;;;;53.58;27.27;;;;;;;19.74;100.00;101658.44;5269102;28;20687;-71
2023/08/18 00:23:20;;;;;;;55.13;29.08;;;;;;;19.73;100.00;101656.78;5285303;28;20032;-71
2023/08/18 00:25:51;;;;;;;54.45;27.85;;;;;;;19.71;100.00;101655.28;5284437;28;20370;-72
2023/08/18 00:28:22;;;;;;;50.00;28.65;;;;;;;19.70;100.00;101654.47;5285121;28;20378;-72
2023/08/18 00:30:52;;;;;;;47.83;27.35;;;;;;;19.70;100.00;101659.06;5285301;28;20020;-72
2023/08/18 00:33:23;;;;;;;49.70;28.27;;;;;;;19.70;100.00;101654.47;5283966;28;20038;-71
2023/08/18 00:35:55;;;;;;;53.22;28.60;;;;;;;19.73;100.00;101653.19;5272899;28;20061;-71
2023/08/18 00:38:28;;;;;;;52.78;30.50;;;;;;;19.72;100.00;101654.25;5281086;28;20382;-72
2023/08/18 00:40:58;;;;;;;51.10;27.67;;;;;;;19.71;100.00;101650.69;5264074;28;20024;-72
2023/08/18 00:43:29;;;;;;;54.25;28.58;;;;;;;19.71;100.00;101647.97;5282612;28;20370;-71
2023/08/18 00:46:00;;;;;;;48.65;27.23;;;;;;;19.71;100.00;101655.28;5284728;28;20393;-72
2023/08/18 00:48:31;;;;;;;54.17;29.23;;;;;;;19.74;100.00;101652.16;5285143;28;20032;-72
2023/08/18 00:51:02;;;;;;;49.72;28.85;;;;;;;19.73;100.00;101648.63;5284768;28;20020;-72
2023/08/18 00:53:33;;;;;;;49.58;26.50;;;;;;;19.74;100.00;101649.44;5271672;28;20599;-71
2023/08/18 00:56:06;;;;;;;52.22;28.15;;;;;;;19.72;100.00;101648.81;5269629;28;20028;-72
2023/08/18 00:58:37;;;;;;;52.00;29.25;;;;;;;19.72;100.00;101651.53;5273309;28;20072;-72
2023/08/18 01:01:07;;;;;;;51.22;28.42;;;;;;;19.71;100.00;101644.41;5285196;28;20523;-72
2023/08/18 01:03:41;;;;;;;58.30;30.58;;;;;;;19.70;100.00;101638.13;5285106;28;20032;-71
2023/08/18 01:06:12;;;;;;;51.40;29.17;;;;;;;19.69;100.00;101641.06;5280365;28;20066;-71
2023/08/18 01:08:43;;;;;;;55.42;29.95;;;;;;;19.71;100.00;101645.25;5264557;28;20064;-71
2023/08/18 01:11:25;;;;;;;55.22;30.42;;;;;;;19.72;100.00;101637.91;5277115;28;20020;-71
2023/08/18 01:14:16;;;;;;;54.55;30.25;;;;;;;19.71;100.00;101637.06;5273493;28;20028;-71
2023/08/18 01:16:56;;;;;;;57.20;31.17;;;;;;;19.72;100.00;101640.63;5276768;28;20031;-72
2023/08/18 01:19:27;;;;;;;55.40;30.25;;;;;;;19.70;100.00;101629.97;5274749;28;20028;-71
2023/08/18 01:21:59;;;;;;;59.35;31.30;;;;;;;19.69;100.00;101630.19;5288775;28;20024;-71
2023/08/18 01:24:29;;;;;;;57.20;31.15;;;;;;;19.69;100.00;101632.91;5288476;28;20074;-72
2023/08/18 01:27:00;;;;;;;58.92;32.03;;;;;;;19.69;100.00;101631.00;5274744;28;20027;-71
2023/08/18 01:29:31;;;;;;;59.17;32.33;;;;;;;19.67;100.00;101625.75;5288721;28;20031;-71
2023/08/18 01:32:05;;;;;;;63.13;30.30;;;;;;;19.68;100.00;101623.91;5288716;28;20019;-71
2023/08/18 01:34:41;;;;;;;63.17;31.67;;;;;;;19.68;100.00;101623.91;5276030;28;20052;-71
2023/08/18 01:37:13;;;;;;;63.08;32.22;;;;;;;19.70;100.00;101621.78;5280738;28;20469;-71
2023/08/18 01:39:44;;;;;;;58.58;33.38;;;;;;;19.68;100.00;101621.19;5267312;28;20020;-71
2023/08/18 01:42:15;;;;;;;60.35;32.30;;;;;;;19.70;100.00;101621.78;5280865;28;20028;-72
2023/08/18 01:44:46;;;;;;;69.85;32.88;;;;;;;19.69;100.00;101609.22;5282998;28;20032;-72
2023/08/18 01:47:17;;;;;;;57.35;31.17;;;;;;;19.70;100.00;101610.91;5287819;28;20047;-71
2023/08/18 01:49:47;;;;;;;62.30;32.72;;;;;;;19.69;100.00;101609.22;5271263;28;20028;-71
2023/08/18 01:52:17;;;;;;;63.47;34.55;;;;;;;19.69;100.00;101614.69;5277907;28;20023;-71
2023/08/18 01:54:51;;;;;;;62.00;33.33;;;;;;;19.67;100.00;101605.88;5288107;28;20024;-72
2023/08/18 01:57:22;;;;;;;72.40;35.17;;;;;;;19.67;100.00;101605.88;5276204;28;20104;-72
2023/08/18 01:59:53;;;;;;;66.88;34.20;;;;;;;19.67;100.00;101603.16;5272060;28;20020;-71
2023/08/18 02:02:23;;;;;;;70.85;36.20;;;;;;;19.63;100.00;101615.50;5275049;28;20028;-72
2023/08/18 02:04:56;;;;;;;68.75;35.97;;;;;;;19.61;100.00;101612.16;5287548;28;20419;-71
2023/08/18 02:07:27;;;;;;;81.00;36.42;;;;;;;19.61;100.00;101602.09;5287743;28;20028;-72
2023/08/18 02:09:57;;;;;;;75.90;36.92;;;;;;;19.59;100.00;101590.59;5285858;28;20019;-72
2023/08/18 02:12:28;;;;;;;75.63;37.22;;;;;;;19.57;100.00;101597.25;5269123;28;20032;-72
2023/08/18 02:15:02;;;;;;;88.93;38.30;;;;;;;19.56;100.00;101592.84;5287971;28;20035;-72
2023/08/18 02:17:33;;;;;;;89.75;40.42;;;;;;;19.56;100.00;101596.41;5287444;28;20473;-72
2023/08/18 02:20:04;;;;;;;90.10;40.50;;;;;;;19.55;100.00;101597.47;5275650;28;20024;-72
2023/08/18 02:22:35;;;;;;;83.47;37.70;;;;;;;19.54;100.00;101600.41;5285460;28;20034;-72
2023/08/18 02:25:07;;;;;;;83.13;39.67;;;;;;;19.55;100.00;101607.50;5273266;28;20035;-71
2023/08/18 02:27:38;;;;;;;84.20;39.75;;;;;;;19.57;100.00;101610.84;5273211;28;20020;-71
2023/08/18 02:30:09;;;;;;;91.45;41.22;;;;;;;19.57;100.00;101613.56;5273889;28;20035;-71
2023/08/18 02:32:41;;;;;;;96.97;43.35;;;;;;;19.55;100.00;101613.78;5287582;28;20030;-71
2023/08/18 02:35:12;;;;;;;107.95;44.50;;;;;;;19.53;100.00;101612.31;5270895;28;20028;-71
2023/08/18 02:37:43;;;;;;;110.53;45.85;;;;;;;19.49;100.00;101611.91;5276023;28;20028;-71
2023/08/18 02:40:14;;;;;;;109.70;46.22;;;;;;;19.44;100.00;101611.69;5287126;28;20027;-71
2023/08/18 02:42:45;;;;;;;114.97;46.85;;;;;;;19.41;100.00;101599.31;5287310;28;20526;-72
2023/08/18 02:45:16;;;;;;;120.10;48.97;;;;;;;19.40;100.00;101594.09;5281244;28;20073;-71
2023/08/18 02:47:46;;;;;;;120.65;48.00;;;;;;;19.38;100.00;101607.06;5278991;28;20035;-72
2023/08/18 02:50:17;;;;;;;113.60;47.58;;;;;;;19.35;100.00;101605.59;5266393;28;20081;-71
2023/08/18 02:52:48;;;;;;;118.53;49.80;;;;;;;19.35;100.00;101604.75;5281043;28;20031;-71
2023/08/18 02:55:18;;;;;;;123.63;50.65;;;;;;;19.31;100.00;101601.59;5278289;28;20028;-71
2023/08/18 02:57:49;;;;;;;126.20;50.95;;;;;;;19.30;100.00;101593.63;5279252;28;20028;-71
2023/08/18 03:00:20;;;;;;;130.50;49.78;;;;;;;19.27;100.00;101586.72;5276157;28;20494;-71
2023/08/18 03:02:50;;;;;;;130.43;51.00;;;;;;;19.26;100.00;101592.38;5286842;28;20048;-71
2023/08/18 03:05:21;;;;;;;126.03;50.83;;;;;;;19.25;100.00;101585.25;5287024;28;20264;-71
2023/08/18 03:07:52;;;;;;;129.63;50.78;;;;;;;19.23;100.00;101587.31;5272833;28;20476;-71
2023/08/18 03:10:23;;;;;;;131.18;51.88;;;;;;;19.24;100.00;101586.31;5278717;28;20441;-72
2023/08/18 03:12:54;;;;;;;121.60;48.92;;;;;;;19.22;100.00;101594.66;5286535;28;20019;-71
2023/08/18 03:15:25;;;;;;;127.63;49.30;;;;;;;19.21;100.00;101584.81;5272290;28;20067;-71
2023/08/18 03:17:56;;;;;;;124.22;49.88;;;;;;;19.20;100.00;101588.59;5277939;28;20019;-72
2023/08/18 03:20:27;;;;;;;130.88;50.30;;;;;;;19.21;100.00;101590.25;5278716;28;20394;-71
2023/08/18 03:22:57;;;;;;;120.18;49.53;;;;;;;19.19;100.00;101591.53;5285206;28;20038;-71
2023/08/18 03:25:28;;;;;;;128.23;51.25;;;;;;;19.21;100.00;101589.44;5270338;28;20035;-72
2023/08/18 03:27:59;;;;;;;128.30;51.05;;;;;;;19.19;100.00;101599.69;5266111;28;20496;-71
2023/08/18 03:30:29;;;;;;;133.27;50.58;;;;;;;19.18;100.00;101595.25;5266239;28;20020;-71
2023/08/18 03:33:00;;;;;;;127.82;48.65;;;;;;;19.15;100.00;101589.22;5265480;28;20042;-71
2023/08/18 03:35:32;;;;;;;120.43;48.53;;;;;;;19.13;100.00;101591.31;5266339;28;20028;-71
2023/08/18 03:38:03;;;;;;;129.02;51.17;;;;;;;19.13;100.00;101594.03;5266332;28;20031;-71
2023/08/18 03:40:34;;;;;;;131.02;52.10;;;;;;;19.09;100.00;101597.34;5254547;28;20030;-71
2023/08/18 03:43:04;;;;;;;118.22;49.10;;;;;;;19.06;100.00;101587.72;5285079;28;20079;-71
2023/08/18 03:45:35;;;;;;;129.63;50.10;;;;;;;19.05;100.00;101596.91;5277337;28;20027;-71
2023/08/18 03:48:06;;;;;;;123.95;48.17;;;;;;;19.06;100.00;101585.00;5285375;28;20028;-71
2023/08/18 03:50:38;;;;;;;123.30;49.80;;;;;;;19.05;100.00;101585.19;5286511;28;20070;-71
2023/08/18 03:53:09;;;;;;;118.35;48.40;;;;;;;19.04;100.00;101587.09;5272416;28;20050;-71
2023/08/18 03:55:40;;;;;;;126.05;49.67;;;;;;;19.03;100.00;101582.69;5285869;28;20023;-71
2023/08/18 03:58:10;;;;;;;118.63;49.65;;;;;;;18.97;100.00;101575.34;5280789;28;20051;-71
2023/08/18 04:00:41;;;;;;;126.55;50.20;;;;;;;18.98;100.00;101573.47;5277163;28;20027;-71
2023/08/18 04:03:12;;;;;;;130.45;49.58;;;;;;;18.94;100.00;101581.19;5279162;28;20028;-71
2023/08/18 04:05:59;;;;;;;132.80;50.35;;;;;;;18.88;100.00;101574.69;5264229;28;20016;-71
2023/08/18 04:08:48;;;;;;;136.73;51.55;;;;;;;18.86;100.00;101563.16;5274741;28;20035;-71
2023/08/18 04:11:18;;;;;;;136.40;51.45;;;;;;;18.81;100.00;101565.66;5285481;28;20069;-71
2023/08/18 04:13:49;;;;;;;138.02;50.95;;;;;;;18.80;100.00;101572.16;5285717;28;20028;-71
2023/08/18 04:16:19;;;;;;;147.43;54.20;;;;;;;18.80;100.00;101576.75;5277946;28;20473;-72
2023/08/18 04:18:50;;;;;;;149.52;53.22;;;;;;;18.79;100.00;101575.91;5279866;28;20106;-71
2023/08/18 04:21:20;;;;;;;142.38;54.13;;;;;;;18.79;100.00;101581.34;5285464;28;20026;-71
2023/08/18 04:23:51;;;;;;;154.10;54.08;;;;;;;18.77;100.00;101582.56;5271808;28;20035;-72
2023/08/18 04:26:21;;;;;;;140.40;52.92;;;;;;;18.79;100.00;101588.66;5285809;28;20027;-72
2023/08/18 04:28:52;;;;;;;143.07;52.50;;;;;;;18.79;100.00;101575.91;5267385;28;20044;-71
2023/08/18 04:31:23;;;;;;;143.98;53.55;;;;;;;18.78;100.00;101576.97;5285807;28;20404;-71
2023/08/18 04:33:54;;;;;;;165.35;56.40;;;;;;;18.75;100.00;101581.94;5279659;28;20089;-71
2023/08/18 04:36:25;;;;;;;152.82;56.10;;;;;;;18.72;100.00;101583.19;5264449;28;20024;-71
2023/08/18 04:38:56;;;;;;;167.73;57.53;;;;;;;18.68;100.00;101579.22;5285120;28;20049;-72
2023/08/18 04:41:26;;;;;;;165.07;58.25;;;;;;;18.64;100.00;101589.59;5270985;28;20039;-71
2023/08/18 04:43:57;;;;;;;153.00;56.42;;;;;;;18.62;100.00;101597.13;5273115;28;20027;-71
2023/08/18 04:46:27;;;;;;;150.30;53.33;;;;;;;18.62;100.00;101593.56;5270976;28;20024;-72
2023/08/18 04:48:58;;;;;;;158.05;55.83;;;;;;;18.63;100.00;101595.25;5288044;28;20401;-71
2023/08/18 04:51:28;;;;;;;149.30;55.90;;;;;;;18.61;100.00;101594.59;5272827;28;20128;-72
2023/08/18 04:53:59;;;;;;;150.55;57.75;;;;;;;18.61;100.00;101590.00;5278767;28;20023;-72
2023/08/18 04:56:29;;;;;;;142.05;53.72;;;;;;;18.62;100.00;101590.84;5289191;28;20050;-71
2023/08/18 04:59:00;;;;;;;147.02;54.22;;;;;;;18.53;100.00;101589.34;5277617;28;20028;-71
2023/08/18 05:01:31;;;;;;;140.00;51.65;;;;;;;18.49;100.00;101593.50;5287571;28;20388;-72
2023/08/18 05:04:02;;;;;;;144.13;52.40;;;;;;;18.47;100.00;101590.13;5271602;28;20020;-71
2023/08/18 05:06:33;;;;;;;139.95;52.03;;;;;;;18.46;100.00;101581.13;5289069;28;20034;-72
2023/08/18 05:09:05;;;;;;;135.50;50.85;;;;;;;18.41;100.00;101589.06;5275855;28;20069;-72
2023/08/18 05:11:35;;;;;;;148.43;53.92;;;;;;;18.43;100.00;101588.88;5288728;28;20030;-71
2023/08/18 05:14:06;;;;;;;137.05;51.90;;;;;;;18.41;100.00;101582.78;5273351;28;20400;-71
2023/08/18 05:16:37;;;;;;;141.90;54.63;;;;;;;18.40;100.00;101590.09;5267782;28;20082;-71
2023/08/18 05:19:07;;;;;;;141.40;52.67;;;;;;;18.40;100.00;101591.97;5285388;28;20410;-71
2023/08/18 05:21:38;;;;;;;138.43;51.78;;;;;;;18.43;100.00;101584.28;5278273;28;20020;-71
2023/08/18 05:24:08;;;;;;;144.57;54.30;;;;;;;18.43;100.00;101580.72;5286063;28;20051;-72
2023/08/18 05:26:39;;;;;;;135.82;52.28;;;;;;;18.44;100.00;101588.66;5276573;28;20036;-71
2023/08/18 05:29:09;;;;;;;146.38;53.45;;;;;;;18.46;100.00;101577.59;5287566;28;20020;-70
2023/08/18 05:31:40;;;;;;;135.90;51.95;;;;;;;18.45;100.00;101581.34;5271002;28;20153;-71
2023/08/18 05:34:10;;;;;;;136.07;52.92;;;;;;;18.45;100.00;101581.34;5279888;28;20023;-71
2023/08/18 05:36:41;;;;;;;144.55;53.25;;;;;;;18.43;100.00;101578.00;5286741;28;20038;-72
2023/08/18 05:39:11;;;;;;;138.43;53.97;;;;;;;18.46;100.00;101580.31;5267870;28;20024;-72
2023/08/18 05:41:43;;;;;;;144.52;53.45;;;;;;;18.45;100.00;101578.63;5267809;28;20394;-72
2023/08/18 05:44:14;;;;;;;137.85;52.88;;;;;;;18.45;100.00;101575.91;5278878;28;20020;-71
2023/08/18 05:46:44;;;;;;;143.85;53.17;;;;;;;18.45;100.00;101571.31;5270266;28;20462;-71
2023/08/18 05:49:15;;;;;;;149.88;56.10;;;;;;;18.47;100.00;101571.09;5267689;28;20020;-71
2023/08/18 05:51:45;;;;;;;145.75;54.38;;;;;;;18.47;100.00;101569.22;5267408;28;20477;-72
2023/08/18 05:54:16;;;;;;;147.93;56.30;;;;;;;18.49;100.00;101567.16;5281273;28;20034;-70
2023/08/18 05:56:46;;;;;;;147.70;58.35;;;;;;;18.51;100.00;101558.81;5288294;28;20023;-71
2023/08/18 05:59:17;;;;;;;143.50;57.80;;;;;;;18.54;100.00;101566.56;5287529;28;20039;-71
2023/08/18 06:01:50;;;;;;;139.25;53.55;;;;;;;18.54;100.00;101561.97;5288613;28;20104;-72
2023/08/18 06:04:20;;;;;;;126.65;49.97;;;;;;;18.54;100.00;101564.69;5274571;28;20024;-72
2023/08/18 06:06:51;;;;;;;117.35;46.17;;;;;;;18.58;100.00;101567.84;5277892;28;20039;-71
2023/08/18 06:09:21;;;;;;;102.13;41.20;;;;;;;18.56;100.00;101565.31;5280673;28;20024;-72
2023/08/18 06:11:52;;;;;;;90.93;40.20;;;;;;;18.58;100.00;101562.41;5272634;28;20036;-71
2023/08/18 06:14:22;;;;;;;85.47;36.58;;;;;;;18.59;100.00;101566.81;5286296;28;20016;-72
2023/08/18 06:16:53;;;;;;;91.90;37.33;;;;;;;18.59;100.00;101569.53;5274820;28;20055;-72
2023/08/18 06:19:23;;;;;;;92.30;39.55;;;;;;;18.59;100.00;101572.22;5287296;28;20477;-71
2023/08/18 06:21:54;;;;;;;91.45;39.22;;;;;;;18.60;100.00;101574.75;5273219;28;20107;-71
2023/08/18 06:24:24;;;;;;;101.60;41.95;;;;;;;18.63;100.00;101566.19;5266740;28;20052;-71
2023/08/18 06:26:55;;;;;;;115.80;43.90;;;;;;;18.64;100.00;101572.47;5279226;28;20100;-72
2023/08/18 06:29:25;;;;;;;115.80;46.95;;;;;;;18.63;100.00;101568.06;5273853;28;20030;-71
2023/08/18 06:31:56;;;;;;;111.95;45.15;;;;;;;18.62;100.00;101579.97;5286905;28;20024;-71
2023/08/18 06:34:27;;;;;;;99.43;42.38;;;;;;;18.64;100.00;101572.47;5286689;28;20380;-72
2023/08/18 06:36:57;;;;;;;106.20;41.95;;;;;;;18.66;100.00;101572.25;5285432;28;20023;-71
2023/08/18 06:39:28;;;;;;;95.47;41.50;;;;;;;18.72;100.00;101575.03;5274040;28;20024;-71
2023/08/18 06:41:59;;;;;;;99.95;41.70;;;;;;;18.79;100.00;101573.19;5284713;28;20024;-71
2023/08/18 06:44:32;;;;;;;88.07;37.53;;;;;;;18.83;100.00;101577.19;5286139;28;20072;-72
2023/08/18 06:47:02;;;;;;;84.15;36.83;;;;;;;18.83;100.00;101585.34;5286267;28;20032;-71
2023/08/18 06:49:33;;;;;;;84.68;37.33;;;;;;;18.84;100.00;101578.84;5271853;28;20028;-71
2023/08/18 06:52:03;;;;;;;71.65;33.10;;;;;;;18.86;100.00;101581.38;5286099;28;20019;-72
2023/08/18 06:54:34;;;;;;;86.82;36.13;;;;;;;18.86;100.00;101567.78;5286051;28;20327;-71
2023/08/18 06:57:05;;;;;;;90.15;38.15;;;;;;;18.84;100.00;101573.41;5285734;28;20034;-71
2023/08/18 06:59:35;;;;;;;80.97;36.22;;;;;;;18.87;100.00;101570.28;5271489;28;20550;-71
2023/08/18 07:02:06;;;;;;;86.78;36.15;;;;;;;18.85;100.00;101585.97;5275438;28;20069;-71
2023/08/18 07:04:37;;;;;;;78.57;35.40;;;;;;;18.84;100.00;101578.84;5272553;28;20561;-71
2023/08/18 07:07:07;;;;;;;81.75;35.90;;;;;;;18.87;100.00;101583.03;5285600;28;20030;-71
2023/08/18 07:09:38;;;;;;;85.18;35.97;;;;;;;18.85;100.00;101583.25;5271625;28;20020;-71
2023/08/18 07:12:09;;;;;;;85.63;37.13;;;;;;;18.86;100.00;101581.38;5271622;28;20028;-71
2023/08/18 07:14:39;;;;;;;78.15;34.47;;;;;;;18.87;100.00;101580.31;5285004;28;20076;-71
2023/08/18 07:17:10;;;;;;;76.45;33.72;;;;;;;18.86;100.00;101579.47;5284828;28;20019;-71
2023/08/18 07:19:40;;;;;;;73.30;34.60;;;;;;;18.92;100.00;101587.88;5272235;28;20023;-71
2023/08/18 07:22:11;;;;;;;74.53;32.70;;;;;;;18.94;100.00;101580.38;5285477;28;20185;-72
2023/08/18 07:24:42;;;;;;;80.45;34.45;;;;;;;18.90;100.00;101577.19;5284891;28;20027;-72
2023/08/18 07:27:12;;;;;;;76.30;33.55;;;;;;;18.93;100.00;101575.97;5285289;28;20486;-71
2023/08/18 07:29:43;;;;;;;82.75;34.75;;;;;;;18.92;100.00;101575.09;5280438;28;20015;-71
2023/08/18 07:32:13;;;;;;;75.22;34.17;;;;;;;18.96;100.00;101572.81;5280921;28;20026;-71
2023/08/18 07:34:45;;;;;;;84.55;36.10;;;;;;;19.03;100.00;101581.88;5284483;28;20088;-72
2023/08/18 07:37:15;;;;;;;77.97;35.30;;;;;;;19.11;100.00;101584.38;5284455;28;20051;-71
2023/08/18 07:39:46;;;;;;;79.38;33.80;;;;;;;19.12;100.00;101595.03;5284823;28;20061;-71
2023/08/18 07:42:16;;;;;;;81.75;36.00;;;;;;;19.13;100.00;101588.59;5277298;28;20426;-71
2023/08/18 07:44:47;;;;;;;88.72;37.15;;;;;;;19.20;100.00;101594.03;5277486;28;20534;-72
2023/08/18 07:47:18;;;;;;;81.45;35.67;;;;;;;19.30;100.00;101594.47;5273455;28;20031;-71
2023/08/18 07:49:48;;;;;;;92.32;36.60;;;;;;;19.33;100.00;101591.34;5252631;28;20491;-71
2023/08/18 07:52:19;;;;;;;81.43;36.20;;;;;;;19.37;100.00;101594.47;5285275;28;20026;-71
2023/08/18 07:54:50;;;;;;;93.82;38.00;;;;;;;19.42;100.00;101591.97;5266787;28;20024;-70
2023/08/18 07:57:21;;;;;;;90.13;38.08;;;;;;;19.44;100.00;101584.47;5266377;28;20024;-71
2023/08/18 07:59:51;;;;;;;84.57;37.20;;;;;;;19.49;100.00;101602.91;5253689;28;20039;-71
2023/08/18 08:02:22;;;;;;;89.07;36.47;;;;;;;19.51;100.00;101606.25;5257878;28;20024;-71
2023/08/18 08:04:53;;;;;;;85.28;37.75;;;;;;;19.53;100.00;101609.56;5278520;28;20034;-71
2023/08/18 08:07:24;;;;;;;86.07;35.85;;;;;;;19.55;100.00;101608.34;5280340;27;20053;-71
2023/08/18 08:09:56;;;;;;;91.75;39.65;;;;;;;19.54;100.00;101603.94;5290543;27;20020;-71
2023/08/18 08:12:27;;;;;;;88.45;40.30;;;;;;;19.59;100.00;101608.78;5275675;28;20107;-71
2023/08/18 08:14:58;;;;;;;92.00;39.47;;;;;;;19.66;100.00;101601.47;5291688;27;20498;-71
2023/08/18 08:17:30;;;;;;;90.85;39.10;;;;;;;19.71;100.00;101601.69;5283115;28;20023;-71
2023/08/18 08:20:05;;;;;;;89.95;39.22;;;;;;;19.71;100.00;101604.41;5276243;28;20077;-71
2023/08/18 08:22:37;;;;;;;91.10;40.15;;;;;;;19.72;100.00;101603.34;5281562;28;20111;-71
2023/08/18 08:25:08;;;;;;;88.47;38.20;;;;;;;19.81;100.00;101604.84;5290943;27;20035;-71
2023/08/18 08:27:39;;;;;;;84.72;37.60;;;;;;;19.82;100.00;101603.78;5286832;27;20432;-71
2023/08/18 08:30:12;;;;;;;78.25;35.58;;;;;;;19.87;100.00;101604.00;5287920;28;20365;-71
2023/08/18 08:32:42;;;;;;;91.18;39.72;;;;;;;19.92;100.00;101612.38;5292996;27;20019;-71
2023/08/18 08:35:13;;;;;;;93.47;40.33;;;;;;;19.96;100.00;101609.25;5289557;27;20027;-71
2023/08/18 08:37:43;;;;;;;77.25;36.97;;;;;;;20.07;100.00;101603.97;5286965;27;20035;-72
2023/08/18 08:40:33;;;;;;;88.80;37.22;;;;;;;20.21;100.00;101604.81;5283994;28;20023;-72
2023/08/18 08:43:04;;;;;;;77.88;36.05;;;;;;;20.35;100.00;101598.31;5286166;28;20081;-71
2023/08/18 08:45:34;;;;;;;81.05;35.78;;;;;;;20.46;100.00;101593.25;5270345;28;20024;-71
2023/08/18 08:48:07;;;;;;;74.82;35.55;;;;;;;20.47;100.00;101595.78;5280173;28;20033;-71
2023/08/18 08:50:44;;;;;;;82.38;35.58;;;;;;;20.51;100.00;101593.47;5288053;28;20411;-72
2023/08/18 08:53:23;;;;;;;87.50;38.45;;;;;;;20.59;100.00;101587.81;5275233;28;20032;-71
2023/08/18 08:55:54;;;;;;;78.30;34.38;;;;;;;20.62;100.00;101588.19;5282992;28;20407;-71
2023/08/18 08:58:29;;;;;;;76.30;34.83;;;;;;;20.69;100.00;101591.75;5286158;28;20019;-71
2023/08/18 09:01:01;;;;;;;84.78;35.95;;;;;;;20.80;100.00;101587.50;5286402;28;20028;-71
2023/08/18 09:03:33;;;;;;;85.97;38.00;;;;;;;20.90;100.00;101597.97;5278602;28;20165;-72
2023/08/18 09:06:06;;;;;;;81.35;36.63;;;;;;;20.98;100.00;101588.69;5284520;28;20023;-72
2023/08/18 09:08:37;;;;;;;94.85;38.75;;;;;;;21.05;100.00;101593.06;5288107;28;20020;-72
2023/08/18 09:11:09;;;;;;;296.05;90.75;;;;;;;21.05;100.00;101592.22;5273684;28;20036;-72
2023/08/18 09:13:41;;;;;;;99.65;40.28;;;;;;;21.09;100.00;101598.94;5261768;28;20027;-72
2023/08/18 09:16:12;;;;;;;88.53;39.13;;;;;;;21.18;100.00;101601.16;5266632;28;20063;-71
2023/08/18 09:18:42;;;;;;;81.10;35.90;;;;;;;21.34;100.00;101604.50;5280030;28;20054;-71
2023/08/18 09:21:13;;;;;;;79.28;34.90;;;;;;;21.44;100.00;101608.41;5266286;28;20020;-71
2023/08/18 09:23:43;;;;;;;76.82;35.92;;;;;;;21.50;100.00;101603.97;5267423;28;20032;-73
2023/08/18 09:26:14;;;;;;;77.10;34.95;;;;;;;21.53;100.00;101606.22;5268035;28;20028;-72
2023/08/18 09:28:45;;;;;;;81.53;36.63;;;;;;;21.55;100.00;101606.03;5268416;28;20073;-71
2023/08/18 09:31:15;;;;;;;84.47;36.38;;;;;;;21.55;100.00;101603.28;5264928;28;20032;-71
2023/08/18 09:33:46;;;;;;;80.97;35.78;;;;;;;21.58;100.00;101605.56;5263408;28;20069;-72
2023/08/18 09:36:18;;;;;;;71.78;33.13;;;;;;;21.59;100.00;101602.63;5267088;28;20051;-72
2023/08/18 09:38:48;;;;;;;66.63;30.65;;;;;;;21.64;100.00;101601.97;5279813;28;20058;-73
2023/08/18 09:41:19;;;;;;;76.35;34.60;;;;;;;21.71;100.00;101600.84;5277908;28;20020;-72
2023/08/18 09:43:50;;;;;;;63.58;29.70;;;;;;;21.75;100.00;101593.06;5273761;28;20034;-72
2023/08/18 09:46:24;;;;;;;73.07;32.85;;;;;;;21.69;100.00;101593.97;5285102;28;20050;-72
2023/08/18 09:48:57;;;;;;;76.60;33.67;;;;;;;21.64;100.00;101585.59;5275578;28;20370;-72
2023/08/18 09:51:28;;;;;;;77.03;35.10;;;;;;;21.62;100.00;101587.69;5284342;28;20026;-72
2023/08/18 09:54:04;;;;;;;72.80;34.38;;;;;;;21.66;100.00;101578.84;5276238;28;20424;-72
2023/08/18 09:56:37;;;;;;;79.72;36.33;;;;;;;21.78;100.00;101578.94;5269279;28;20522;-72
2023/08/18 09:59:20;;;;;;;73.53;33.42;;;;;;;21.89;100.00;101577.41;5272275;28;20028;-71
2023/08/18 10:01:52;;;;;;;75.10;32.88;;;;;;;22.01;100.00;101572.03;5276126;28;20028;-72
2023/08/18 10:04:24;;;;;;;75.38;34.45;;;;;;;22.18;100.00;101575.88;5279516;28;20020;-73
2023/08/18 10:06:55;;;;;;;81.88;33.47;;;;;;;22.26;100.00;101578.34;5264474;28;20069;-72
2023/08/18 10:09:28;;;;;;;80.28;36.08;;;;;;;22.26;100.00;101566.56;5263497;28;20023;-72
2023/08/18 10:12:01;;;;;;;80.50;36.80;;;;;;;22.26;100.00;101564.66;5252178;28;20024;-73
2023/08/18 10:14:32;;;;;;;81.60;36.63;;;;;;;22.32;100.00;101560.19;5276458;28;20024;-72
2023/08/18 10:17:05;;;;;;;75.10;34.63;;;;;;;22.42;100.00;101560.50;5262033;28;20496;-73
2023/08/18 10:19:47;;;;;;;71.57;34.28;;;;;;;22.56;100.00;101553.81;5263567;28;20485;-73
2023/08/18 10:22:19;;;;;;;71.57;33.13;;;;;;;22.62;100.00;101546.59;5280082;28;20488;-73
2023/08/18 10:24:51;;;;;;;74.50;34.78;;;;;;;22.73;100.00;101546.66;5273244;28;20428;-73
2023/08/18 10:27:41;;;;;;;77.03;33.35;;;;;;;22.87;100.00;101547.31;5265024;28;20094;-72
2023/08/18 10:30:11;;;;;;;67.50;31.42;;;;;;;22.95;100.00;101536.09;5259314;28;20035;-72
2023/08/18 10:32:42;;;;;;;71.43;32.47;;;;;;;23.03;100.00;101543.13;5265536;28;20099;-73
2023/08/18 10:35:27;;;;;;;68.72;33.28;;;;;;;23.10;100.00;101535.69;5265161;28;20288;-73
2023/08/18 10:38:16;;;;;;;70.60;33.20;;;;;;;23.16;100.00;101540.22;5276450;28;20069;-72
2023/08/18 10:40:51;;;;;;;74.93;34.60;;;;;;;23.21;100.00;101534.88;5273320;28;20396;-73
2023/08/18 10:43:26;;;;;;;66.68;32.75;;;;;;;23.39;100.00;101533.13;5272858;28;20048;-72
2023/08/18 10:45:59;;;;;;;71.03;34.40;;;;;;;23.51;100.00;101532.09;5272340;28;20389;-73
2023/08/18 10:48:32;;;;;;;68.03;32.55;;;;;;;23.64;100.00;101531.06;5284162;28;20028;-73
2023/08/18 10:51:03;;;;;;;63.75;31.58;;;;;;;23.73;100.00;101529.63;5284708;28;20346;-73
2023/08/18 10:53:37;;;;;;;64.35;31.48;;;;;;;23.92;100.00;101513.91;5285989;28;20023;-73
2023/08/18 10:56:07;;;;;;;75.68;33.80;;;;;;;24.11;100.00;101516.53;5253527;28;20028;-73
2023/08/18 10:58:38;;;;;;;74.50;36.03;;;;;;;24.35;100.00;101509.09;5285533;28;20072;-73
2023/08/18 11:01:09;;;;;;;69.15;34.10;;;;;;;24.45;100.00;101503.84;5285129;28;20374;-73
2023/08/18 11:03:39;;;;;;;68.60;32.60;;;;;;;24.58;100.00;101502.75;5256573;28;20043;-73
2023/08/18 11:06:10;;;;;;;69.72;33.38;;;;;;;24.66;100.00;101497.72;5276881;27;20485;-73
2023/08/18 11:08:40;;;;;;;64.47;32.20;;;;;;;24.83;100.00;101491.44;5283519;27;20594;-73
2023/08/18 11:11:11;;;;;;;73.30;34.10;;;;;;;24.99;100.00;101491.47;5271677;27;20020;-73
2023/08/18 11:13:41;;;;;;;64.97;31.58;;;;;;;25.09;100.00;101496.34;5293708;27;20031;-74
2023/08/18 11:16:12;;;;;;;68.32;34.28;;;;;;;25.11;100.00;101496.13;5284431;27;20023;-73
2023/08/18 11:18:43;;;;;;;70.22;35.45;;;;;;;25.04;100.00;101497.06;5289806;27;20027;-73